Terminal Aerodrome Forecast
Issued by NWS Jackson, MS

Home | Current Version | Previous Version | Text Only | Print | Product List | Glossary On
Versions: 1 2 3 4 5 6 7 8 9 10 11 12 13 14
000
FTUS44 KJAN 012300
TAFMEI
TAF
KMEI 012320Z 0200/0224 10003KT 2SM -RA BR VCTS OVC006CB
     FM020400 12003KT 6SM -RA BR OVC003
     FM020500 16003KT 4SM -RA BR OVC003
     FM020900 15003KT 2SM BR OVC003
     FM021500 04004KT 4SM BR OVC003=

USA.gov is the U.S. government's official web portal to all federal, state and local government web resources and services.